Time;durP1;ratioP1;P1;durP2;ratioP2;P2;SDS_P1;SDS_P2;PMS_P1;PMS_P2;Temp;Humidity;BMP_temperature;BMP_pressure;BME280_temperature;BME280_humidity;BME280_pressure;Samples;Min_cycle;Max_cycle;Signal;HPM_P1;HPM_P2
2021/03/14 00:01:07;;;;;;;1.93;1.83;;;6.20;95.80;;;6.02;91.87;96961.69;5067484;28;20644;-65
2021/03/14 00:03:37;;;;;;;4.63;4.00;;;6.30;95.90;;;6.08;90.86;96965.63;5063050;28;20734;-65
2021/03/14 00:06:06;;;;;;;3.00;2.33;;;6.30;95.60;;;5.94;91.49;96963.97;5061545;28;20729;-65
2021/03/14 00:08:34;;;;;;;1.40;1.10;;;6.30;95.50;;;5.87;91.76;96975.66;5060606;28;20667;-65
2021/03/14 00:11:06;;;;;;;0.83;0.77;;;6.20;95.70;;;5.78;91.76;96983.22;5061659;28;20633;-65
2021/03/14 00:13:37;;;;;;;1.40;0.70;;;6.10;96.00;;;5.77;91.70;96981.56;5065504;28;20670;-65
2021/03/14 00:16:07;;;;;;;0.80;0.70;;;6.00;95.90;;;5.79;91.92;96990.06;5064896;28;21008;-65
2021/03/14 00:18:37;;;;;;;2.87;0.67;;;6.10;96.00;;;5.77;92.32;96987.56;5060201;28;20737;-65
2021/03/14 00:21:07;;;;;;;2.00;1.10;;;6.10;96.10;;;5.81;91.71;96989.00;5058860;28;20632;-65
2021/03/14 00:23:35;;;;;;;4.40;0.80;;;6.10;96.10;;;5.67;92.37;96985.69;5056298;28;20625;-65
2021/03/14 00:26:05;;;;;;;1.10;0.60;;;6.00;95.90;;;5.77;91.95;96984.13;5058694;28;21173;-65
2021/03/14 00:28:33;;;;;;;1.23;0.60;;;6.00;96.20;;;5.69;91.99;96991.56;5068781;28;20636;-65
2021/03/14 00:31:00;;;;;;;1.73;0.90;;;6.00;96.00;;;5.67;92.39;96999.41;5066549;28;20645;-65
2021/03/14 00:33:28;;;;;;;1.87;0.80;;;6.00;96.40;;;5.65;92.73;96996.13;5054714;28;20696;-65
2021/03/14 00:35:56;;;;;;;1.00;0.60;;;5.90;96.30;;;5.63;92.47;96989.38;5066478;28;20758;-65
2021/03/14 00:38:24;;;;;;;2.90;0.77;;;5.90;96.40;;;5.66;92.99;96994.34;5060901;28;20686;-65
2021/03/14 00:40:52;;;;;;;1.07;0.50;;;5.90;96.60;;;5.62;92.89;96993.75;5061261;28;21177;-65
2021/03/14 00:43:20;;;;;;;2.00;0.70;;;6.00;96.60;;;5.56;93.13;97010.56;5067045;28;20631;-65
2021/03/14 00:45:48;;;;;;;1.20;0.60;;;5.90;96.60;;;5.50;92.73;97016.97;5065105;28;20688;-65
2021/03/14 00:48:31;;;;;;;0.73;0.63;;;5.80;96.60;;;5.49;93.98;97002.41;5062467;28;20590;-65
2021/03/14 00:50:59;;;;;;;1.47;0.77;;;5.80;97.00;;;5.43;93.26;97015.72;5062783;28;24043;-65
2021/03/14 00:53:35;;;;;;;1.83;1.10;;;5.80;96.60;;;5.37;92.54;97012.72;5067346;28;20625;-65
2021/03/14 00:56:07;;;;;;;1.10;0.67;;;5.80;96.50;;;5.38;93.03;97015.22;5053097;28;20617;-65
2021/03/14 00:58:35;;;;;;;2.53;0.90;;;5.70;97.10;;;5.36;93.05;97022.22;5056995;28;20642;-65
2021/03/14 01:01:03;;;;;;;2.20;0.80;;;5.70;97.20;;;5.31;92.44;97018.28;5053474;28;20662;-65
2021/03/14 01:03:36;;;;;;;1.50;0.73;;;5.70;96.70;;;5.39;93.14;97021.19;5071375;28;20641;-65
2021/03/14 01:06:04;;;;;;;2.03;0.80;;;5.70;96.70;;;5.42;92.55;97024.41;5063223;28;20654;-65
2021/03/14 01:08:31;;;;;;;2.53;0.80;;;5.80;96.50;;;5.31;92.72;97013.94;5067375;28;20628;-65
2021/03/14 01:10:59;;;;;;;1.60;0.80;;;5.70;96.50;;;5.36;93.02;97026.56;5059266;28;21452;-65
2021/03/14 01:13:51;;;;;;;0.80;0.60;;;5.80;96.60;;;5.34;92.53;97016.31;5060130;28;20696;-65
2021/03/14 01:16:21;;;;;;;2.70;0.77;;;5.70;96.40;;;5.31;93.10;97013.94;5057280;28;21181;-65
2021/03/14 01:18:52;;;;;;;1.10;0.70;;;5.70;96.50;;;5.36;93.30;97013.66;5061863;28;20628;-64
2021/03/14 01:21:20;;;;;;;1.63;0.70;;;5.70;96.70;;;5.45;93.05;97007.88;5062675;28;20645;-65
2021/03/14 01:23:47;;;;;;;1.00;0.63;;;5.80;96.60;;;5.49;92.29;97022.22;5066002;28;20636;-65
2021/03/14 01:26:15;;;;;;;1.33;0.90;;;5.90;96.40;;;5.45;92.43;97033.72;5065488;28;20642;-65
2021/03/14 01:28:43;;;;;;;2.97;0.83;;;5.90;96.40;;;5.38;93.19;97046.22;5062243;28;20636;-65
2021/03/14 01:31:11;;;;;;;1.57;0.70;;;5.80;96.30;;;5.39;92.59;97036.69;5062550;28;21439;-65
2021/03/14 01:33:39;;;;;;;1.90;0.70;;;5.80;96.40;;;5.42;92.98;97037.31;5060344;28;20704;-65
2021/03/14 01:36:08;;;;;;;1.47;0.80;;;5.80;96.80;;;5.38;92.36;97042.78;5065302;28;20660;-65
2021/03/14 01:38:36;;;;;;;0.80;0.70;;;5.80;96.40;;;5.42;92.76;97036.50;5062226;28;20688;-65
2021/03/14 01:41:05;;;;;;;1.67;0.60;;;5.80;96.90;;;5.43;91.96;97044.16;5058626;28;20645;-65
2021/03/14 01:43:36;;;;;;;0.90;0.50;;;5.80;96.30;;;5.45;92.83;97054.41;5057976;28;21089;-64
2021/03/14 01:46:04;;;;;;;0.70;0.60;;;5.80;96.40;;;5.42;91.73;97052.84;5060789;28;20664;-64
2021/03/14 01:48:36;;;;;;;0.90;0.60;;;5.80;96.50;;;5.45;92.46;97057.81;5057390;28;20632;-64
2021/03/14 01:51:06;;;;;;;1.10;0.60;;;5.80;96.20;;;5.50;92.30;97052.34;5056655;28;21702;-64
2021/03/14 01:53:34;;;;;;;0.60;0.60;;;5.90;96.40;;;5.58;92.20;97053.50;5060648;28;21269;-64
2021/03/14 01:56:03;;;;;;;1.53;0.67;;;6.00;96.30;;;5.60;91.98;97046.47;5061893;28;20701;-64
2021/03/14 01:58:33;;;;;;;0.60;0.50;;;6.00;96.30;;;5.60;91.99;97048.25;5060808;28;21425;-64
2021/03/14 02:01:01;;;;;;;1.20;0.53;;;6.00;96.10;;;5.63;92.41;97047.09;5062350;28;20632;-64
2021/03/14 02:03:30;;;;;;;0.83;0.53;;;6.00;96.20;;;5.55;91.39;97055.44;5068858;28;20690;-64
2021/03/14 02:05:58;;;;;;;0.97;0.40;;;5.90;95.90;;;5.60;92.18;97051.63;5064327;28;20648;-64
2021/03/14 02:08:26;;;;;;;0.70;0.50;;;6.00;96.00;;;5.65;91.61;97060.75;5057902;28;20659;-64
2021/03/14 02:10:54;;;;;;;1.23;0.57;;;6.00;95.90;;;5.67;90.90;97048.56;5065789;28;20669;-64
2021/03/14 02:13:28;;;;;;;0.87;0.60;;;6.10;95.60;;;5.69;89.84;97051.03;5055464;28;20644;-64
2021/03/14 02:15:59;;;;;;;2.10;0.60;;;6.10;95.30;;;5.69;90.22;97057.03;5063653;28;21018;-64
2021/03/14 02:18:30;;;;;;;0.60;0.50;;;6.10;95.20;;;5.60;91.10;97061.97;5063717;28;20679;-64
2021/03/14 02:20:58;;;;;;;0.67;0.60;;;6.10;95.20;;;5.58;91.24;97063.00;5063023;28;20666;-64
2021/03/14 02:23:35;;;;;;;1.43;0.53;;;6.00;95.20;;;5.63;90.28;97062.59;5064980;28;20751;-64
2021/03/14 02:26:09;;;;;;;0.73;0.60;;;6.10;95.30;;;5.58;90.78;97066.44;5060646;28;20655;-64
2021/03/14 02:28:38;;;;;;;0.80;0.70;;;6.00;95.30;;;5.48;91.13;97062.78;5069592;28;20693;-64
2021/03/14 02:31:07;;;;;;;0.87;0.67;;;5.90;95.70;;;5.53;91.50;97072.81;5063516;28;20629;-64
2021/03/14 02:33:40;;;;;;;1.47;0.80;;;5.90;95.70;;;5.53;90.47;97076.22;5068341;28;20633;-64
2021/03/14 02:36:10;;;;;;;2.10;1.00;;;5.90;95.50;;;5.54;90.17;97080.47;5065569;28;20664;-64
2021/03/14 02:38:41;;;;;;;1.40;1.13;;;6.00;95.40;;;5.49;90.49;97079.09;5065408;28;20653;-64
2021/03/14 02:41:11;;;;;;;1.20;1.00;;;5.90;95.30;;;5.56;91.14;97088.13;5063947;28;21163;-64
2021/03/14 02:43:40;;;;;;;1.43;1.10;;;6.00;95.30;;;5.49;90.94;97079.97;5061120;28;20640;-64
2021/03/14 02:46:09;;;;;;;1.43;1.27;;;5.90;95.10;;;5.41;90.89;97086.53;5065158;28;20648;-65
2021/03/14 02:48:37;;;;;;;2.60;1.40;;;5.90;95.30;;;5.45;90.93;97088.00;5064065;28;21059;-64
2021/03/14 02:51:06;;;;;;;1.40;1.00;;;5.90;95.50;;;5.50;91.34;97097.09;5067696;28;20644;-64
2021/03/14 02:53:34;;;;;;;1.50;1.10;;;5.90;95.60;;;5.51;90.64;97097.97;5065230;28;21258;-64
2021/03/14 02:56:02;;;;;;;2.37;1.07;;;5.90;95.50;;;5.49;91.38;97108.41;5063644;28;20640;-64
2021/03/14 02:58:31;;;;;;;4.20;1.23;;;5.90;95.40;;;5.46;91.09;97098.25;5071311;28;20683;-64
2021/03/14 03:01:03;;;;;;;1.43;1.10;;;5.90;95.60;;;5.43;90.96;97108.78;5064454;28;20632;-64
2021/03/14 03:03:31;;;;;;;3.07;1.43;;;5.90;95.60;;;5.50;90.75;97104.88;5062357;28;20744;-64
2021/03/14 03:06:00;;;;;;;1.30;1.00;;;6.00;95.70;;;5.55;91.06;97120.06;5062549;28;20762;-64
2021/03/14 03:08:30;;;;;;;4.93;1.30;;;5.90;95.60;;;5.60;90.71;97124.03;5069636;28;20683;-64
2021/03/14 03:11:03;;;;;;;1.30;1.20;;;6.00;95.50;;;5.54;90.27;97124.44;5068567;28;20752;-64
2021/03/14 03:13:34;;;;;;;1.80;1.27;;;6.00;95.40;;;5.49;91.09;97130.81;5065244;28;20667;-64
2021/03/14 03:16:06;;;;;;;4.53;1.40;;;6.00;95.30;;;5.52;91.16;97143.53;5070185;28;20633;-64
2021/03/14 03:18:34;;;;;;;1.97;1.40;;;6.00;95.30;;;5.47;91.47;97149.00;5067455;28;20675;-64
2021/03/14 03:21:02;;;;;;;2.20;1.40;;;6.00;95.40;;;5.50;90.75;97153.97;5058439;28;20706;-64
2021/03/14 03:23:30;;;;;;;2.40;1.17;;;5.90;95.40;;;5.47;90.42;97154.19;5064413;28;20693;-64
2021/03/14 03:26:00;;;;;;;2.90;1.50;;;5.90;95.40;;;5.44;91.54;97153.56;5065615;28;20724;-64
2021/03/14 03:28:28;;;;;;;1.80;1.40;;;5.90;95.40;;;5.44;91.51;97159.56;5069732;28;20639;-65
2021/03/14 03:30:56;;;;;;;3.07;1.40;;;5.90;95.60;;;5.51;90.83;97157.41;5064215;28;20631;-65
2021/03/14 03:33:24;;;;;;;4.00;1.70;;;6.00;95.60;;;5.50;91.64;97163.50;5061341;28;20646;-65
2021/03/14 03:35:52;;;;;;;1.37;1.23;;;6.00;95.60;;;5.51;91.79;97165.19;5065207;28;20659;-65
2021/03/14 03:38:20;;;;;;;2.17;1.50;;;5.90;95.60;;;5.50;91.07;97169.50;5061230;28;20701;-65
2021/03/14 03:40:48;;;;;;;3.00;1.53;;;5.90;96.00;;;5.50;91.73;97179.84;5067155;28;21096;-65
2021/03/14 03:43:23;;;;;;;2.53;1.70;;;5.90;95.80;;;5.57;92.09;97180.31;5059940;28;20736;-65
2021/03/14 03:45:55;;;;;;;2.90;1.77;;;6.00;95.90;;;5.60;91.51;97191.28;5070296;28;20663;-65
2021/03/14 03:48:31;;;;;;;3.30;1.60;;;6.00;95.70;;;5.57;91.07;97200.97;5065627;28;20640;-65
2021/03/14 03:51:00;;;;;;;2.40;1.50;;;6.00;95.60;;;5.58;91.28;97200.88;5063875;28;20635;-65
2021/03/14 03:53:29;;;;;;;4.20;2.17;;;6.00;95.50;;;5.59;90.71;97205.13;5064208;28;21499;-64
2021/03/14 03:55:58;;;;;;;3.07;1.70;;;6.00;95.40;;;5.54;91.39;97204.59;5063696;28;20637;-64
2021/03/14 03:58:26;;;;;;;2.87;1.40;;;6.00;95.40;;;5.49;90.52;97211.81;5068643;28;20634;-64
2021/03/14 04:00:55;;;;;;;2.30;1.57;;;6.00;95.30;;;5.50;90.74;97216.03;5059125;28;20701;-64
2021/03/14 04:03:24;;;;;;;2.73;1.90;;;6.00;95.30;;;5.45;91.48;97228.41;5066697;28;20656;-64
2021/03/14 04:05:58;;;;;;;2.77;1.83;;;5.90;95.30;;;5.44;91.15;97231.09;5061388;28;20774;-64
2021/03/14 04:08:26;;;;;;;2.63;1.73;;;5.90;95.40;;;5.43;91.67;97229.47;5064824;28;20640;-64
2021/03/14 04:10:56;;;;;;;2.30;1.60;;;5.90;95.90;;;5.36;91.54;97239.31;5067387;28;20965;-64
2021/03/14 04:13:25;;;;;;;2.33;2.00;;;5.80;95.60;;;5.39;91.52;97239.13;5065909;28;20658;-64
2021/03/14 04:15:52;;;;;;;2.90;1.90;;;5.90;95.60;;;5.46;91.08;97239.59;5065529;28;20672;-64
2021/03/14 04:18:21;;;;;;;3.10;1.90;;;5.90;95.70;;;5.36;91.76;97236.75;5057389;28;21083;-64
2021/03/14 04:21:06;;;;;;;2.70;1.63;;;5.80;95.90;;;5.35;91.25;97248.03;5067871;28;20639;-64
2021/03/14 04:23:38;;;;;;;2.03;1.83;;;5.80;95.60;;;5.29;91.71;97257.88;5061593;28;20648;-64
2021/03/14 04:26:06;;;;;;;3.20;1.97;;;5.70;95.40;;;5.26;91.34;97258.94;5063775;28;20725;-64
2021/03/14 04:28:36;;;;;;;3.30;1.93;;;5.70;95.60;;;5.29;91.87;97268.22;5064312;28;20734;-64
2021/03/14 04:31:06;;;;;;;3.20;1.83;;;5.70;95.60;;;5.27;91.22;97270.91;5058784;28;20655;-64
2021/03/14 04:33:34;;;;;;;3.20;2.13;;;5.70;95.60;;;5.36;91.31;97270.34;5058631;28;20644;-64
2021/03/14 04:36:04;;;;;;;2.90;1.80;;;5.80;95.50;;;5.44;90.24;97272.47;5066645;28;20712;-64
2021/03/14 04:38:33;;;;;;;3.30;2.60;;;5.90;95.50;;;5.34;90.40;97282.53;5071333;28;20727;-64
2021/03/14 04:41:02;;;;;;;2.47;2.10;;;5.70;95.10;;;5.37;90.33;97290.13;5063797;28;20234;-64
2021/03/14 04:43:30;;;;;;;6.90;2.60;;;5.80;95.30;;;5.36;90.06;97290.22;5058087;28;20632;-64
2021/03/14 04:45:59;;;;;;;3.63;2.10;;;5.80;95.50;;;5.35;91.36;97294.56;5069662;28;20688;-64
2021/03/14 04:48:27;;;;;;;1.70;1.60;;;5.80;95.30;;;5.40;90.04;97297.69;5060972;28;21155;-64
2021/03/14 04:50:55;;;;;;;2.00;1.80;;;5.90;95.60;;;5.47;90.79;97300.72;5062589;28;20677;-64
2021/03/14 04:53:28;;;;;;;3.77;1.90;;;5.90;95.30;;;5.55;90.28;97309.69;5065072;28;20690;-64
2021/03/14 04:55:57;;;;;;;3.20;2.00;;;6.00;95.10;;;5.52;90.33;97311.59;5063101;28;21034;-64
2021/03/14 04:58:26;;;;;;;3.10;1.80;;;6.00;95.00;;;5.56;90.16;97320.84;5056186;28;21180;-64
2021/03/14 05:00:53;;;;;;;2.37;2.17;;;6.00;95.00;;;5.57;89.97;97323.34;5055917;28;21247;-64
2021/03/14 05:03:23;;;;;;;3.00;1.90;;;6.00;94.90;;;5.71;89.26;97324.16;5062256;28;20650;-64
2021/03/14 05:05:53;;;;;;;3.03;2.27;;;6.10;94.70;;;5.63;89.39;97333.31;5058020;28;20671;-64
2021/03/14 05:08:24;;;;;;;4.80;2.10;;;6.10;94.40;;;5.65;88.95;97331.44;5064575;28;20624;-64
2021/03/14 05:10:53;;;;;;;2.70;2.20;;;6.10;94.30;;;5.61;88.61;97335.16;5066272;28;20641;-64
2021/03/14 05:13:20;;;;;;;3.53;1.73;;;6.10;94.10;;;5.64;89.14;97337.56;5066645;28;20672;-64
2021/03/14 05:15:52;;;;;;;2.10;1.90;;;6.10;94.20;;;5.67;88.67;97348.53;5054493;28;21225;-64
2021/03/14 05:18:22;;;;;;;4.30;2.30;;;6.10;94.20;;;5.67;88.66;97345.94;5061273;28;21238;-64
2021/03/14 05:20:50;;;;;;;3.73;2.17;;;6.10;94.40;;;5.68;88.58;97350.22;5059162;28;20647;-64
2021/03/14 05:23:18;;;;;;;1.70;1.53;;;6.10;94.30;;;5.65;88.25;97359.88;5063511;28;20695;-64
2021/03/14 05:25:48;;;;;;;2.50;1.60;;;6.10;93.90;;;5.55;89.09;97363.97;5064054;28;20651;-64
2021/03/14 05:28:19;;;;;;;3.53;2.20;;;6.00;94.00;;;5.59;89.44;97365.44;5060893;28;20991;-64
2021/03/14 05:30:47;;;;;;;1.90;1.80;;;6.00;94.10;;;5.68;88.34;97368.31;5063938;28;20644;-64
2021/03/14 05:33:14;;;;;;;3.83;2.03;;;6.10;94.10;;;5.52;88.95;97369.34;5061832;28;20702;-64
2021/03/14 05:35:43;;;;;;;2.73;1.50;;;6.00;94.10;;;5.48;89.22;97378.19;5061890;28;20671;-64
2021/03/14 05:38:11;;;;;;;2.80;2.00;;;5.90;94.20;;;5.52;89.53;97381.41;5065829;28;20701;-64
2021/03/14 05:40:39;;;;;;;2.20;1.80;;;6.00;94.30;;;5.59;88.39;97374.97;5062843;28;20639;-64
2021/03/14 05:43:08;;;;;;;2.73;1.93;;;6.00;94.20;;;5.61;88.56;97386.88;5065567;28;21179;-64
2021/03/14 05:45:36;;;;;;;2.30;2.07;;;6.10;94.20;;;5.62;88.02;97393.69;5062099;28;20691;-64
2021/03/14 05:48:05;;;;;;;4.10;1.83;;;6.10;94.00;;;5.60;88.56;97388.63;5062034;28;20674;-64
2021/03/14 05:50:33;;;;;;;3.80;1.90;;;6.10;93.90;;;5.66;88.45;97392.59;5059309;28;20658;-64
2021/03/14 05:53:02;;;;;;;3.27;1.70;;;6.10;94.10;;;5.70;88.26;97400.09;5065364;28;20635;-64
2021/03/14 05:55:29;;;;;;;2.37;1.47;;;6.10;93.90;;;5.66;88.26;97406.34;5059905;28;20683;-64
2021/03/14 05:57:57;;;;;;;3.23;1.70;;;6.10;93.60;;;5.65;88.01;97416.78;5058753;28;21211;-64
2021/03/14 06:00:28;;;;;;;1.73;1.47;;;6.10;94.00;;;5.68;87.70;97414.00;5057173;28;20640;-64
2021/03/14 06:02:59;;;;;;;3.77;2.57;;;6.10;93.60;;;5.63;87.78;97422.06;5065947;28;20712;-64
2021/03/14 06:05:32;;;;;;;2.30;1.43;;;6.10;93.50;;;5.62;88.21;97430.75;5070312;28;21217;-64
2021/03/14 06:08:00;;;;;;;1.53;1.40;;;6.10;93.50;;;5.64;87.81;97430.66;5059435;28;20641;-64
2021/03/14 06:10:28;;;;;;;5.73;1.70;;;6.10;93.50;;;5.62;87.72;97435.91;5060684;28;21070;-64
2021/03/14 06:12:55;;;;;;;1.97;1.60;;;6.10;93.40;;;5.62;87.57;97445.41;5059613;28;20636;-64
2021/03/14 06:15:23;;;;;;;2.50;1.63;;;6.00;93.40;;;5.59;88.70;97443.00;5064566;28;20631;-64
2021/03/14 06:17:51;;;;;;;3.43;1.30;;;6.10;93.60;;;5.63;88.67;97449.66;5065495;28;20709;-64
2021/03/14 06:20:36;;;;;;;2.77;1.43;;;6.10;93.70;;;5.61;88.20;97446.34;5057591;28;20644;-64
2021/03/14 06:23:09;;;;;;;2.60;1.57;;;6.00;93.80;;;5.64;88.13;97451.34;5057864;28;20643;-64
2021/03/14 06:25:39;;;;;;;1.90;1.67;;;6.10;93.80;;;5.61;87.54;97459.28;5062704;28;20656;-64
2021/03/14 06:28:08;;;;;;;2.60;1.50;;;6.00;94.10;;;5.63;87.86;97465.19;5068784;28;20986;-64
2021/03/14 06:30:36;;;;;;;2.43;1.43;;;6.10;93.70;;;5.55;88.26;97470.00;5062790;28;20678;-64
2021/03/14 06:33:09;;;;;;;2.20;1.63;;;6.00;93.90;;;5.58;88.76;97479.28;5058737;28;20697;-64
2021/03/14 06:35:43;;;;;;;3.67;2.10;;;6.00;94.00;;;5.62;89.39;97484.19;5058281;28;20663;-64
2021/03/14 06:38:28;;;;;;;4.90;1.77;;;6.10;94.10;;;5.64;88.80;97492.72;5062270;28;20664;-64
2021/03/14 06:41:16;;;;;;;3.00;1.67;;;6.10;94.10;;;5.54;89.52;97514.03;5056691;28;20638;-64
2021/03/14 06:43:47;;;;;;;2.63;1.70;;;6.00;94.10;;;5.56;88.54;97513.00;5055970;28;20645;-64
2021/03/14 06:46:22;;;;;;;3.83;1.80;;;6.00;94.30;;;5.65;88.15;97530.56;5067325;28;20695;-64
2021/03/14 06:49:05;;;;;;;2.73;1.97;;;6.10;94.20;;;5.63;89.14;97528.06;5068088;28;20637;-64
2021/03/14 06:51:35;;;;;;;2.53;1.57;;;6.10;94.10;;;5.62;89.11;97534.19;5064999;28;20643;-64
2021/03/14 06:54:23;;;;;;;4.40;1.70;;;6.10;94.20;;;5.65;88.58;97540.91;5065023;28;20694;-64
2021/03/14 06:57:06;;;;;;;4.90;1.77;;;6.10;94.20;;;5.60;88.87;97545.53;5066259;28;20696;-64
2021/03/14 06:59:36;;;;;;;3.70;2.13;;;6.00;94.20;;;5.57;89.10;97548.28;5068153;28;20712;-64
2021/03/14 07:02:08;;;;;;;2.43;1.80;;;6.00;94.00;;;5.50;88.61;97548.72;5067642;28;20636;-64
2021/03/14 07:04:48;;;;;;;3.93;2.00;;;5.90;93.90;;;5.58;88.53;97546.53;5064933;28;20732;-64
2021/03/14 07:07:22;;;;;;;3.00;1.83;;;6.00;94.10;;;5.58;88.89;97557.72;5064578;28;20659;-64
2021/03/14 07:09:58;;;;;;;5.33;2.00;;;6.00;94.00;;;5.59;88.86;97566.31;5060299;28;20643;-64
2021/03/14 07:12:31;;;;;;;2.17;1.70;;;6.00;94.10;;;5.59;88.75;97568.91;5068734;28;21175;-67
2021/03/14 07:15:11;;;;;;;3.57;2.00;;;6.00;94.30;;;5.58;88.07;97578.41;5062482;28;20645;-65
2021/03/14 07:17:40;;;;;;;2.40;1.73;;;6.00;93.80;;;5.61;87.90;97575.66;5062542;28;20637;-65
2021/03/14 07:20:13;;;;;;;2.67;1.60;;;6.00;94.00;;;5.62;86.78;97572.97;5059134;28;20643;-65
2021/03/14 07:22:41;;;;;;;2.20;2.00;;;6.00;93.10;;;5.64;87.12;97588.41;5068084;28;20698;-66
2021/03/14 07:25:22;;;;;;;9.50;4.00;;;6.00;93.20;;;5.61;87.00;97596.34;5065866;28;20746;-65
2021/03/14 07:27:50;;;;;;;3.83;2.20;;;6.00;93.10;;;5.64;86.68;97598.75;5059920;28;20635;-65
2021/03/14 07:30:22;;;;;;;3.73;1.90;;;6.10;93.20;;;5.63;86.79;97602.25;5063779;28;20628;-65
2021/03/14 07:32:50;;;;;;;4.00;1.97;;;6.00;93.10;;;5.63;87.14;97612.59;5059348;28;20680;-65
2021/03/14 07:35:21;;;;;;;4.33;1.80;;;6.00;93.10;;;5.69;86.69;97620.00;5062897;28;20671;-65
2021/03/14 07:37:51;;;;;;;3.03;1.70;;;6.10;93.00;;;5.64;86.81;97622.03;5070195;28;20655;-65
2021/03/14 07:40:22;;;;;;;3.77;2.13;;;6.10;92.80;;;5.54;86.63;97636.38;5067267;28;20673;-65
2021/03/14 07:42:57;;;;;;;2.40;1.70;;;6.00;93.00;;;5.40;87.36;97638.09;5068289;28;20623;-65
2021/03/14 07:45:26;;;;;;;3.60;1.90;;;5.90;93.00;;;5.40;87.78;97646.66;5063849;28;20744;-65
2021/03/14 07:47:54;;;;;;;4.47;2.07;;;5.90;93.10;;;5.37;88.22;97644.25;5066610;28;20625;-65
2021/03/14 07:50:27;;;;;;;3.50;1.83;;;5.90;93.40;;;5.38;88.83;97645.94;5067773;28;21153;-65
2021/03/14 07:53:04;;;;;;;3.70;1.90;;;5.80;94.00;;;5.44;88.16;97652.50;5068621;28;20676;-65
2021/03/14 07:55:32;;;;;;;3.17;1.90;;;5.90;93.90;;;5.50;88.79;97658.16;5065886;28;20622;-65
2021/03/14 07:58:00;;;;;;;4.27;1.80;;;5.90;94.10;;;5.62;87.91;97658.31;5069572;28;21464;-65
2021/03/14 08:00:33;;;;;;;4.60;1.67;;;6.00;93.90;;;5.66;87.86;97657.22;5059670;28;21105;-66
2021/03/14 08:03:03;;;;;;;4.33;2.10;;;6.00;93.60;;;5.66;88.04;97658.97;5061748;28;20645;-66
2021/03/14 08:05:51;;;;;;;7.80;2.23;;;6.10;93.60;;;5.77;87.65;97669.59;5064321;28;20663;-66
2021/03/14 08:08:46;;;;;;;3.20;1.70;;;6.20;93.70;;;5.88;87.66;97677.56;5058482;28;21139;-66
2021/03/14 08:11:27;;;;;;;3.90;2.00;;;6.30;93.60;;;5.95;87.45;97676.31;5065017;28;20647;-66
2021/03/14 08:13:56;;;;;;;2.83;2.00;;;6.30;93.60;;;6.02;87.30;97681.06;5061742;28;20636;-66
2021/03/14 08:16:29;;;;;;;2.43;2.10;;;6.40;93.50;;;6.06;87.25;97692.06;5061284;28;21166;-66
2021/03/14 08:19:12;;;;;;;3.40;2.20;;;6.50;93.40;;;6.15;87.44;97687.22;5063207;28;20681;-66
2021/03/14 08:21:42;;;;;;;5.83;1.70;;;6.50;93.50;;;6.23;86.79;97685.81;5066500;28;21224;-66
2021/03/14 08:24:14;;;;;;;9.30;2.10;;;6.60;93.30;;;6.32;85.78;97684.47;5070458;28;20648;-66
2021/03/14 08:26:42;;;;;;;3.37;2.10;;;6.70;92.80;;;6.41;85.62;97683.94;5056929;28;20657;-66
2021/03/14 08:29:15;;;;;;;5.00;2.27;;;6.80;92.60;;;6.46;85.56;97690.50;5078374;28;21013;-66
2021/03/14 08:31:49;;;;;;;3.33;2.00;;;6.80;92.60;;;6.56;86.04;97699.41;5055753;28;20700;-66
2021/03/14 08:34:45;;;;;;;3.43;2.37;;;6.90;92.70;;;6.69;84.71;97700.31;5064754;28;21040;-66
2021/03/14 08:37:26;;;;;;;3.10;1.83;;;7.00;92.20;;;6.66;83.83;97700.50;5066531;28;20626;-66
2021/03/14 08:40:03;;;;;;;4.00;1.77;;;7.00;91.40;;;6.72;84.17;97710.50;5070244;28;20677;-66
2021/03/14 08:42:55;;;;;;;3.87;1.90;;;7.10;91.70;;;6.77;84.10;97713.69;5053011;28;20635;-66
2021/03/14 08:45:35;;;;;;;2.13;1.43;;;7.10;91.30;;;6.78;84.01;97716.19;5068839;28;20648;-66
2021/03/14 08:48:22;;;;;;;2.60;1.40;;;7.10;91.30;;;6.71;82.77;97711.47;5038728;28;20638;-66
2021/03/14 08:50:53;;;;;;;6.00;2.20;;;7.00;90.70;;;6.78;82.77;97715.31;5045254;28;20639;-66
2021/03/14 08:53:27;;;;;;;7.10;2.13;;;7.10;90.80;;;6.86;81.38;97713.97;5055714;28;20632;-67
2021/03/14 08:56:01;;;;;;;4.10;2.00;;;7.20;90.10;;;6.89;81.10;97718.13;5065188;28;20625;-67
2021/03/14 08:58:36;;;;;;;2.37;1.50;;;7.20;89.30;;;6.93;81.97;97725.63;5064338;28;20992;-67
2021/03/14 09:01:13;;;;;;;5.87;2.03;;;7.30;90.10;;;7.03;83.29;97727.56;5061315;28;20647;-67
2021/03/14 09:03:58;;;;;;;4.53;2.20;;;7.40;90.80;;;7.03;82.56;97731.09;5049764;28;20631;-68
2021/03/14 09:06:33;;;;;;;5.10;1.70;;;7.40;90.00;;;6.98;80.44;97733.97;5061273;28;21188;-67
2021/03/14 09:09:12;;;;;;;4.53;1.57;;;7.30;88.20;;;6.98;80.39;97733.97;5064594;28;21001;-67
2021/03/14 09:11:51;;;;;;;4.90;1.50;;;7.30;89.30;;;7.02;78.92;97734.59;5054699;28;20626;-66
2021/03/14 09:14:35;;;;;;;2.43;1.50;;;7.40;86.00;;;7.04;79.32;97741.38;5069133;28;20635;-66
2021/03/14 09:17:11;;;;;;;3.90;1.50;;;7.50;85.90;;;7.09;79.18;97742.75;5051687;28;21216;-66
2021/03/14 09:19:44;;;;;;;3.00;1.37;;;7.50;86.20;;;7.10;78.69;97741.00;5052191;28;20776;-67
2021/03/14 09:22:15;;;;;;;3.20;1.40;;;7.50;85.60;;;7.21;78.91;97744.59;5052584;28;20659;-67
2021/03/14 09:25:03;;;;;;;5.53;1.83;;;7.50;85.60;;;7.33;79.12;97740.44;5063029;28;21018;-66
2021/03/14 09:27:34;;;;;;;4.23;1.40;;;7.70;85.60;;;7.44;79.46;97738.00;5054448;28;20664;-67
2021/03/14 09:30:12;;;;;;;4.03;1.83;;;7.80;85.30;;;7.51;77.52;97735.78;5077327;28;20652;-67
2021/03/14 09:32:42;;;;;;;2.00;1.20;;;7.80;83.80;;;7.63;77.78;97729.81;5066851;28;20661;-66
2021/03/14 09:35:25;;;;;;;3.90;1.23;;;7.90;83.60;;;7.74;75.79;97723.97;5053805;28;20666;-66
2021/03/14 09:37:58;;;;;;;2.70;1.13;;;8.00;83.10;;;7.76;76.36;97727.31;5062208;28;20729;-66
2021/03/14 09:40:33;;;;;;;2.70;1.20;;;8.10;82.00;;;7.64;75.79;97720.28;5064581;28;20642;-67
2021/03/14 09:43:14;;;;;;;2.80;1.40;;;8.00;80.40;;;7.52;75.56;97715.88;5052176;28;20654;-66
2021/03/14 09:46:02;;;;;;;2.40;1.10;;;7.90;79.50;;;7.34;75.46;97729.97;5069014;28;20764;-66
2021/03/14 09:48:35;;;;;;;2.70;1.30;;;7.80;78.90;;;7.27;75.33;97731.25;5060845;28;20639;-66
2021/03/14 09:51:06;;;;;;;5.53;2.00;;;7.70;79.80;;;7.30;75.05;97722.47;5081953;28;21199;-66
2021/03/14 09:53:36;;;;;;;3.00;1.33;;;7.70;79.80;;;7.31;76.56;97729.34;5055877;28;21439;-66
2021/03/14 09:56:09;;;;;;;4.40;1.60;;;7.70;80.70;;;7.27;76.65;97720.88;5042941;28;20627;-66
2021/03/14 09:59:01;;;;;;;5.57;1.37;;;7.60;81.90;;;7.43;75.87;97732.00;5070744;28;20621;-66
2021/03/14 10:01:31;;;;;;;4.03;1.20;;;7.70;81.80;;;7.55;76.43;97726.06;5056365;28;20710;-66
2021/03/14 10:03:59;;;;;;;4.20;1.23;;;7.80;82.40;;;7.70;75.90;97730.28;5061794;28;20676;-66
2021/03/14 10:06:39;;;;;;;4.07;1.57;;;7.90;81.80;;;7.83;76.04;97725.97;5063257;28;20656;-66
2021/03/14 10:09:26;;;;;;;2.20;1.20;;;8.10;80.80;;;7.90;74.32;97719.47;5067397;28;20729;-66
2021/03/14 10:12:13;;;;;;;4.30;1.50;;;8.20;79.40;;;8.02;73.49;97722.13;5065876;28;21178;-66
2021/03/14 10:14:45;;;;;;;3.33;1.30;;;8.30;79.20;;;8.21;74.50;97718.28;5064651;28;20989;-66
2021/03/14 10:17:14;;;;;;;2.47;1.20;;;8.40;79.30;;;8.31;74.46;97727.09;5052808;28;20628;-66
2021/03/14 10:19:44;;;;;;;2.40;1.40;;;8.50;78.40;;;8.44;74.46;97729.75;5060589;28;20666;-66
2021/03/14 10:22:12;;;;;;;3.90;1.40;;;8.60;79.20;;;8.70;72.24;97721.91;5063576;28;20695;-66
2021/03/14 10:24:52;;;;;;;1.53;1.00;;;8.80;78.00;;;8.87;73.74;97716.38;5068131;28;20627;-66
2021/03/14 10:27:31;;;;;;;3.70;1.90;;;9.00;78.10;;;8.91;72.06;97715.25;5060407;28;20657;-66
2021/03/14 10:30:20;;;;;;;2.90;1.20;;;9.10;76.60;;;8.80;71.22;97712.56;5064353;28;21264;-66
2021/03/14 10:32:54;;;;;;;4.83;1.67;;;9.10;74.60;;;8.69;72.99;97715.88;5067985;28;21174;-67
2021/03/14 10:35:27;;;;;;;3.20;1.53;;;9.00;75.80;;;8.61;72.88;97719.91;5061298;28;20792;-66
2021/03/14 10:38:18;;;;;;;2.60;1.60;;;8.90;76.10;;;8.51;72.54;97716.28;5060688;28;20692;-67
2021/03/14 10:40:50;;;;;;;3.10;1.70;;;8.90;77.10;;;8.43;72.32;97723.72;5059282;28;21369;-67
2021/03/14 10:43:22;;;;;;;6.27;2.03;;;8.80;76.80;;;8.52;75.36;97720.50;5059431;28;20628;-67
2021/03/14 10:45:58;;;;;;;4.70;2.97;;;8.90;78.90;;;8.66;75.69;97715.22;5062393;28;20659;-66
2021/03/14 10:48:28;;;;;;;3.13;1.53;;;8.90;79.20;;;8.78;73.44;97715.25;5065598;28;20639;-66
2021/03/14 10:51:00;;;;;;;2.40;1.57;;;9.00;78.70;;;9.23;74.26;97712.09;5064245;28;20648;-67
2021/03/14 10:53:29;;;;;;;6.63;1.60;;;9.30;79.10;;;9.57;72.54;97727.88;5063695;28;20730;-67